Terminal Aerodrome Forecast
Issued by NWS Sterling, VA

Current Version | Previous Version | Text Only | Print | Product List | Glossary Off
Versions: 1 2 3 4 5 6 7 8 9 10 11 12 13 14 15 16

000
FTUS41 KLWX 111100
TAFMRB
TAF
KMRB 111137Z 1112/1212 VRB03KT 4SM BR BKN050
     FM111300 05004KT P6SM SCT050
     FM120900 00000KT 3SM BR BKN050=

USA.gov is the U.S. government's official web portal to all federal, state and local government web resources and services.